sensor_id;sensor_type;location;lat;lon;timestamp;P1;durP1;ratioP1;P2;durP2;ratioP2
38787;SDS011;24536;45.488;12.238;2024-01-30T00:00:42;52.40;;;33.33;;
38787;SDS011;24536;45.488;12.238;2024-01-30T00:03:08;56.33;;;36.80;;
38787;SDS011;24536;45.488;12.238;2024-01-30T00:05:33;62.17;;;37.88;;
38787;SDS011;24536;45.488;12.238;2024-01-30T00:07:59;60.70;;;39.08;;
38787;SDS011;24536;45.488;12.238;2024-01-30T00:10:25;57.70;;;37.97;;
38787;SDS011;24536;45.488;12.238;2024-01-30T00:12:50;58.08;;;37.65;;
38787;SDS011;24536;45.488;12.238;2024-01-30T00:15:16;55.78;;;36.45;;
38787;SDS011;24536;45.488;12.238;2024-01-30T00:17:43;75.60;;;46.13;;
38787;SDS011;24536;45.488;12.238;2024-01-30T00:20:09;55.22;;;35.20;;
38787;SDS011;24536;45.488;12.238;2024-01-30T00:22:35;57.72;;;38.03;;
38787;SDS011;24536;45.488;12.238;2024-01-30T00:25:00;52.15;;;34.17;;
38787;SDS011;24536;45.488;12.238;2024-01-30T00:27:26;48.55;;;32.75;;
38787;SDS011;24536;45.488;12.238;2024-01-30T00:29:52;45.00;;;30.67;;
38787;SDS011;24536;45.488;12.238;2024-01-30T00:32:18;48.05;;;31.48;;
38787;SDS011;24536;45.488;12.238;2024-01-30T00:34:44;47.30;;;30.70;;
38787;SDS011;24536;45.488;12.238;2024-01-30T00:37:10;55.58;;;36.88;;
38787;SDS011;24536;45.488;12.238;2024-01-30T00:39:36;46.92;;;30.15;;
38787;SDS011;24536;45.488;12.238;2024-01-30T00:42:01;42.50;;;28.80;;
38787;SDS011;24536;45.488;12.238;2024-01-30T00:44:27;56.08;;;37.55;;
38787;SDS011;24536;45.488;12.238;2024-01-30T00:46:53;46.90;;;29.60;;
38787;SDS011;24536;45.488;12.238;2024-01-30T00:49:19;55.17;;;36.15;;
38787;SDS011;24536;45.488;12.238;2024-01-30T00:51:45;45.25;;;29.88;;
38787;SDS011;24536;45.488;12.238;2024-01-30T00:54:11;48.03;;;31.65;;
38787;SDS011;24536;45.488;12.238;2024-01-30T00:56:36;47.58;;;31.77;;
38787;SDS011;24536;45.488;12.238;2024-01-30T00:59:02;45.40;;;29.83;;
38787;SDS011;24536;45.488;12.238;2024-01-30T01:01:27;52.40;;;34.15;;
38787;SDS011;24536;45.488;12.238;2024-01-30T01:03:53;41.58;;;28.63;;
38787;SDS011;24536;45.488;12.238;2024-01-30T01:06:19;38.75;;;27.67;;
38787;SDS011;24536;45.488;12.238;2024-01-30T01:08:45;41.33;;;28.58;;
38787;SDS011;24536;45.488;12.238;2024-01-30T01:11:10;40.08;;;28.67;;
38787;SDS011;24536;45.488;12.238;2024-01-30T01:13:36;39.88;;;27.92;;
38787;SDS011;24536;45.488;12.238;2024-01-30T01:16:02;40.55;;;28.75;;
38787;SDS011;24536;45.488;12.238;2024-01-30T01:18:28;39.85;;;26.80;;
38787;SDS011;24536;45.488;12.238;2024-01-30T01:20:54;30.17;;;22.67;;
38787;SDS011;24536;45.488;12.238;2024-01-30T01:23:20;40.30;;;28.10;;
38787;SDS011;24536;45.488;12.238;2024-01-30T01:25:45;41.08;;;29.63;;
38787;SDS011;24536;45.488;12.238;2024-01-30T01:28:11;39.20;;;28.27;;
38787;SDS011;24536;45.488;12.238;2024-01-30T01:30:37;38.10;;;27.08;;
38787;SDS011;24536;45.488;12.238;2024-01-30T01:33:04;44.85;;;29.90;;
38787;SDS011;24536;45.488;12.238;2024-01-30T01:35:31;37.65;;;26.65;;
38787;SDS011;24536;45.488;12.238;2024-01-30T01:37:57;34.92;;;25.27;;
38787;SDS011;24536;45.488;12.238;2024-01-30T01:40:25;35.65;;;25.38;;
38787;SDS011;24536;45.488;12.238;2024-01-30T01:42:53;34.85;;;24.33;;
38787;SDS011;24536;45.488;12.238;2024-01-30T01:45:19;42.15;;;29.45;;
38787;SDS011;24536;45.488;12.238;2024-01-30T01:47:47;35.42;;;25.80;;
38787;SDS011;24536;45.488;12.238;2024-01-30T01:50:15;34.72;;;26.33;;
38787;SDS011;24536;45.488;12.238;2024-01-30T01:52:44;36.00;;;25.30;;
38787;SDS011;24536;45.488;12.238;2024-01-30T01:55:14;35.67;;;25.23;;
38787;SDS011;24536;45.488;12.238;2024-01-30T01:57:41;36.30;;;25.90;;
38787;SDS011;24536;45.488;12.238;2024-01-30T02:00:07;32.40;;;23.60;;
38787;SDS011;24536;45.488;12.238;2024-01-30T02:02:35;34.30;;;25.75;;
38787;SDS011;24536;45.488;12.238;2024-01-30T02:05:01;35.53;;;26.42;;
38787;SDS011;24536;45.488;12.238;2024-01-30T02:07:28;33.17;;;24.25;;
38787;SDS011;24536;45.488;12.238;2024-01-30T02:09:54;32.28;;;24.15;;
38787;SDS011;24536;45.488;12.238;2024-01-30T02:12:20;33.50;;;24.13;;
38787;SDS011;24536;45.488;12.238;2024-01-30T02:14:46;35.10;;;25.23;;
38787;SDS011;24536;45.488;12.238;2024-01-30T02:17:15;41.03;;;30.50;;
38787;SDS011;24536;45.488;12.238;2024-01-30T02:19:41;34.25;;;25.48;;
38787;SDS011;24536;45.488;12.238;2024-01-30T02:22:07;37.03;;;25.67;;
38787;SDS011;24536;45.488;12.238;2024-01-30T02:24:34;34.58;;;24.15;;
38787;SDS011;24536;45.488;12.238;2024-01-30T02:26:59;33.35;;;24.23;;
38787;SDS011;24536;45.488;12.238;2024-01-30T02:29:25;30.75;;;22.13;;
38787;SDS011;24536;45.488;12.238;2024-01-30T02:31:51;32.45;;;23.88;;
38787;SDS011;24536;45.488;12.238;2024-01-30T02:34:17;34.92;;;24.73;;
38787;SDS011;24536;45.488;12.238;2024-01-30T02:36:44;30.77;;;23.60;;
38787;SDS011;24536;45.488;12.238;2024-01-30T02:39:10;31.77;;;23.83;;
38787;SDS011;24536;45.488;12.238;2024-01-30T02:41:36;33.78;;;24.20;;
38787;SDS011;24536;45.488;12.238;2024-01-30T02:44:02;29.80;;;23.02;;
38787;SDS011;24536;45.488;12.238;2024-01-30T02:46:29;30.95;;;23.33;;
38787;SDS011;24536;45.488;12.238;2024-01-30T02:48:55;31.48;;;22.92;;
38787;SDS011;24536;45.488;12.238;2024-01-30T02:51:21;31.05;;;23.95;;
38787;SDS011;24536;45.488;12.238;2024-01-30T02:53:46;27.38;;;21.35;;
38787;SDS011;24536;45.488;12.238;2024-01-30T02:56:12;28.90;;;22.15;;
38787;SDS011;24536;45.488;12.238;2024-01-30T02:58:39;28.30;;;22.75;;
38787;SDS011;24536;45.488;12.238;2024-01-30T03:01:05;31.67;;;24.20;;
38787;SDS011;24536;45.488;12.238;2024-01-30T03:03:31;32.50;;;22.58;;
38787;SDS011;24536;45.488;12.238;2024-01-30T03:05:59;27.15;;;21.10;;
38787;SDS011;24536;45.488;12.238;2024-01-30T03:08:25;28.63;;;22.20;;
38787;SDS011;24536;45.488;12.238;2024-01-30T03:10:50;31.15;;;23.15;;
38787;SDS011;24536;45.488;12.238;2024-01-30T03:13:16;30.95;;;23.23;;
38787;SDS011;24536;45.488;12.238;2024-01-30T03:15:42;27.15;;;21.05;;
38787;SDS011;24536;45.488;12.238;2024-01-30T03:18:07;27.42;;;20.58;;
38787;SDS011;24536;45.488;12.238;2024-01-30T03:20:33;28.73;;;21.00;;
38787;SDS011;24536;45.488;12.238;2024-01-30T03:22:59;26.83;;;20.77;;
38787;SDS011;24536;45.488;12.238;2024-01-30T03:25:25;26.67;;;20.02;;
38787;SDS011;24536;45.488;12.238;2024-01-30T03:27:51;28.00;;;21.45;;
38787;SDS011;24536;45.488;12.238;2024-01-30T03:30:17;29.15;;;21.58;;
38787;SDS011;24536;45.488;12.238;2024-01-30T03:32:43;27.90;;;21.08;;
38787;SDS011;24536;45.488;12.238;2024-01-30T03:35:09;27.25;;;20.17;;
38787;SDS011;24536;45.488;12.238;2024-01-30T03:37:35;26.73;;;20.67;;
38787;SDS011;24536;45.488;12.238;2024-01-30T03:40:01;27.25;;;21.35;;
38787;SDS011;24536;45.488;12.238;2024-01-30T03:42:27;24.83;;;18.70;;
38787;SDS011;24536;45.488;12.238;2024-01-30T03:44:53;25.63;;;19.48;;
38787;SDS011;24536;45.488;12.238;2024-01-30T03:47:20;29.25;;;21.60;;
38787;SDS011;24536;45.488;12.238;2024-01-30T03:49:45;26.10;;;20.65;;
38787;SDS011;24536;45.488;12.238;2024-01-30T03:52:11;23.17;;;18.38;;
38787;SDS011;24536;45.488;12.238;2024-01-30T03:54:37;25.00;;;18.55;;
38787;SDS011;24536;45.488;12.238;2024-01-30T03:57:03;27.73;;;20.17;;
38787;SDS011;24536;45.488;12.238;2024-01-30T03:59:29;27.00;;;19.98;;
38787;SDS011;24536;45.488;12.238;2024-01-30T04:01:54;24.73;;;19.20;;
38787;SDS011;24536;45.488;12.238;2024-01-30T04:04:20;26.42;;;19.63;;
38787;SDS011;24536;45.488;12.238;2024-01-30T04:06:46;27.27;;;20.65;;
38787;SDS011;24536;45.488;12.238;2024-01-30T04:09:12;25.42;;;19.23;;
38787;SDS011;24536;45.488;12.238;2024-01-30T04:11:38;26.50;;;19.30;;
38787;SDS011;24536;45.488;12.238;2024-01-30T04:14:04;24.48;;;19.50;;
38787;SDS011;24536;45.488;12.238;2024-01-30T04:16:30;24.50;;;19.50;;
38787;SDS011;24536;45.488;12.238;2024-01-30T04:18:56;26.92;;;20.77;;
38787;SDS011;24536;45.488;12.238;2024-01-30T04:21:23;25.60;;;19.30;;
38787;SDS011;24536;45.488;12.238;2024-01-30T04:23:50;25.70;;;19.85;;
38787;SDS011;24536;45.488;12.238;2024-01-30T04:26:16;25.05;;;20.40;;
38787;SDS011;24536;45.488;12.238;2024-01-30T04:28:42;21.40;;;16.52;;
38787;SDS011;24536;45.488;12.238;2024-01-30T04:31:09;20.23;;;14.98;;
38787;SDS011;24536;45.488;12.238;2024-01-30T04:33:35;21.55;;;17.48;;
38787;SDS011;24536;45.488;12.238;2024-01-30T04:36:01;19.83;;;15.68;;
38787;SDS011;24536;45.488;12.238;2024-01-30T04:38:28;23.00;;;17.08;;
38787;SDS011;24536;45.488;12.238;2024-01-30T04:40:53;22.60;;;17.75;;
38787;SDS011;24536;45.488;12.238;2024-01-30T04:43:19;25.33;;;18.60;;
38787;SDS011;24536;45.488;12.238;2024-01-30T04:45:45;24.40;;;18.90;;
38787;SDS011;24536;45.488;12.238;2024-01-30T04:48:11;24.08;;;16.50;;
38787;SDS011;24536;45.488;12.238;2024-01-30T04:50:36;19.67;;;15.63;;
38787;SDS011;24536;45.488;12.238;2024-01-30T04:53:02;21.85;;;16.60;;
38787;SDS011;24536;45.488;12.238;2024-01-30T04:55:28;22.13;;;17.00;;
38787;SDS011;24536;45.488;12.238;2024-01-30T04:57:54;21.55;;;16.13;;
38787;SDS011;24536;45.488;12.238;2024-01-30T05:00:19;21.15;;;14.73;;
38787;SDS011;24536;45.488;12.238;2024-01-30T05:02:45;19.13;;;15.65;;
38787;SDS011;24536;45.488;12.238;2024-01-30T05:05:10;21.05;;;15.63;;
38787;SDS011;24536;45.488;12.238;2024-01-30T05:07:36;20.63;;;15.55;;
38787;SDS011;24536;45.488;12.238;2024-01-30T05:10:02;21.35;;;16.67;;
38787;SDS011;24536;45.488;12.238;2024-01-30T05:12:28;21.30;;;15.20;;
38787;SDS011;24536;45.488;12.238;2024-01-30T05:14:54;18.65;;;14.70;;
38787;SDS011;24536;45.488;12.238;2024-01-30T05:17:20;20.05;;;15.25;;
38787;SDS011;24536;45.488;12.238;2024-01-30T05:19:45;18.02;;;14.45;;
38787;SDS011;24536;45.488;12.238;2024-01-30T05:22:11;25.08;;;18.83;;
38787;SDS011;24536;45.488;12.238;2024-01-30T05:24:40;26.55;;;18.77;;
38787;SDS011;24536;45.488;12.238;2024-01-30T05:27:07;24.75;;;18.08;;
38787;SDS011;24536;45.488;12.238;2024-01-30T05:29:33;21.27;;;13.27;;
38787;SDS011;24536;45.488;12.238;2024-01-30T05:31:59;18.30;;;14.13;;
38787;SDS011;24536;45.488;12.238;2024-01-30T05:34:25;19.80;;;15.32;;
38787;SDS011;24536;45.488;12.238;2024-01-30T05:36:50;19.85;;;14.13;;
38787;SDS011;24536;45.488;12.238;2024-01-30T05:39:16;19.15;;;13.85;;
38787;SDS011;24536;45.488;12.238;2024-01-30T05:41:41;21.17;;;16.40;;
38787;SDS011;24536;45.488;12.238;2024-01-30T05:44:07;18.58;;;14.93;;
38787;SDS011;24536;45.488;12.238;2024-01-30T05:46:33;18.38;;;14.93;;
38787;SDS011;24536;45.488;12.238;2024-01-30T05:49:00;18.58;;;14.10;;
38787;SDS011;24536;45.488;12.238;2024-01-30T05:51:26;16.20;;;13.40;;
38787;SDS011;24536;45.488;12.238;2024-01-30T05:53:53;15.85;;;12.07;;
38787;SDS011;24536;45.488;12.238;2024-01-30T05:56:18;20.05;;;14.43;;
38787;SDS011;24536;45.488;12.238;2024-01-30T05:58:44;27.08;;;19.35;;
38787;SDS011;24536;45.488;12.238;2024-01-30T06:01:10;28.58;;;14.38;;
38787;SDS011;24536;45.488;12.238;2024-01-30T06:03:35;20.88;;;15.52;;
38787;SDS011;24536;45.488;12.238;2024-01-30T06:06:01;19.60;;;15.85;;
38787;SDS011;24536;45.488;12.238;2024-01-30T06:08:27;14.95;;;11.88;;
38787;SDS011;24536;45.488;12.238;2024-01-30T06:10:53;30.33;;;20.23;;
38787;SDS011;24536;45.488;12.238;2024-01-30T06:13:18;21.50;;;13.15;;
38787;SDS011;24536;45.488;12.238;2024-01-30T06:15:44;15.75;;;12.07;;
38787;SDS011;24536;45.488;12.238;2024-01-30T06:18:10;17.60;;;13.80;;
38787;SDS011;24536;45.488;12.238;2024-01-30T06:20:36;15.23;;;11.55;;
38787;SDS011;24536;45.488;12.238;2024-01-30T06:23:01;17.85;;;12.82;;
38787;SDS011;24536;45.488;12.238;2024-01-30T06:25:27;15.15;;;12.93;;
38787;SDS011;24536;45.488;12.238;2024-01-30T06:27:52;16.52;;;12.95;;
38787;SDS011;24536;45.488;12.238;2024-01-30T06:30:18;16.40;;;13.32;;
38787;SDS011;24536;45.488;12.238;2024-01-30T06:32:44;18.63;;;12.93;;
38787;SDS011;24536;45.488;12.238;2024-01-30T06:35:10;20.15;;;14.80;;
38787;SDS011;24536;45.488;12.238;2024-01-30T06:37:36;17.77;;;14.05;;
38787;SDS011;24536;45.488;12.238;2024-01-30T06:40:02;24.10;;;18.65;;
38787;SDS011;24536;45.488;12.238;2024-01-30T06:42:29;17.85;;;13.73;;
38787;SDS011;24536;45.488;12.238;2024-01-30T06:44:55;15.40;;;12.32;;
38787;SDS011;24536;45.488;12.238;2024-01-30T06:47:21;19.50;;;14.25;;
38787;SDS011;24536;45.488;12.238;2024-01-30T06:49:47;18.27;;;13.80;;
38787;SDS011;24536;45.488;12.238;2024-01-30T06:52:12;17.15;;;13.23;;
38787;SDS011;24536;45.488;12.238;2024-01-30T06:54:39;16.02;;;12.75;;
38787;SDS011;24536;45.488;12.238;2024-01-30T06:57:05;16.23;;;12.85;;
38787;SDS011;24536;45.488;12.238;2024-01-30T06:59:36;19.05;;;13.95;;
38787;SDS011;24536;45.488;12.238;2024-01-30T07:02:02;17.52;;;14.48;;
38787;SDS011;24536;45.488;12.238;2024-01-30T07:04:28;18.83;;;14.95;;
38787;SDS011;24536;45.488;12.238;2024-01-30T07:06:53;19.80;;;15.02;;
38787;SDS011;24536;45.488;12.238;2024-01-30T07:09:19;17.58;;;13.65;;
38787;SDS011;24536;45.488;12.238;2024-01-30T07:11:45;18.35;;;15.52;;
38787;SDS011;24536;45.488;12.238;2024-01-30T07:14:10;18.55;;;14.60;;
38787;SDS011;24536;45.488;12.238;2024-01-30T07:16:36;18.00;;;14.60;;
38787;SDS011;24536;45.488;12.238;2024-01-30T07:19:02;19.17;;;14.10;;
38787;SDS011;24536;45.488;12.238;2024-01-30T07:21:28;19.23;;;14.77;;
38787;SDS011;24536;45.488;12.238;2024-01-30T07:23:54;20.75;;;16.45;;
38787;SDS011;24536;45.488;12.238;2024-01-30T07:26:20;18.55;;;14.60;;
38787;SDS011;24536;45.488;12.238;2024-01-30T07:28:46;26.65;;;20.67;;
38787;SDS011;24536;45.488;12.238;2024-01-30T07:31:21;29.50;;;21.95;;
38787;SDS011;24536;45.488;12.238;2024-01-30T07:33:48;20.92;;;14.75;;
38787;SDS011;24536;45.488;12.238;2024-01-30T07:36:14;23.20;;;18.70;;
38787;SDS011;24536;45.488;12.238;2024-01-30T07:38:39;17.67;;;13.90;;
38787;SDS011;24536;45.488;12.238;2024-01-30T07:41:05;21.55;;;15.77;;
38787;SDS011;24536;45.488;12.238;2024-01-30T07:43:31;17.73;;;13.50;;
38787;SDS011;24536;45.488;12.238;2024-01-30T07:46:00;26.58;;;20.30;;
38787;SDS011;24536;45.488;12.238;2024-01-30T07:48:27;17.77;;;13.63;;
38787;SDS011;24536;45.488;12.238;2024-01-30T07:50:53;16.23;;;13.55;;
38787;SDS011;24536;45.488;12.238;2024-01-30T07:53:19;22.42;;;16.52;;
38787;SDS011;24536;45.488;12.238;2024-01-30T07:55:47;15.85;;;12.77;;
38787;SDS011;24536;45.488;12.238;2024-01-30T07:58:13;26.77;;;21.25;;
38787;SDS011;24536;45.488;12.238;2024-01-30T08:00:39;17.85;;;14.15;;
38787;SDS011;24536;45.488;12.238;2024-01-30T08:03:05;18.25;;;14.40;;
38787;SDS011;24536;45.488;12.238;2024-01-30T08:05:31;23.63;;;18.25;;
38787;SDS011;24536;45.488;12.238;2024-01-30T08:07:56;17.08;;;13.93;;
38787;SDS011;24536;45.488;12.238;2024-01-30T08:10:22;16.38;;;13.52;;
38787;SDS011;24536;45.488;12.238;2024-01-30T08:12:48;20.90;;;17.58;;
38787;SDS011;24536;45.488;12.238;2024-01-30T08:15:19;17.55;;;14.35;;
38787;SDS011;24536;45.488;12.238;2024-01-30T08:17:44;17.23;;;13.82;;
38787;SDS011;24536;45.488;12.238;2024-01-30T08:20:10;18.23;;;14.65;;
38787;SDS011;24536;45.488;12.238;2024-01-30T08:22:38;26.20;;;20.40;;
38787;SDS011;24536;45.488;12.238;2024-01-30T08:25:05;17.75;;;13.95;;
38787;SDS011;24536;45.488;12.238;2024-01-30T08:27:31;18.58;;;13.68;;
38787;SDS011;24536;45.488;12.238;2024-01-30T08:29:57;20.40;;;16.10;;
38787;SDS011;24536;45.488;12.238;2024-01-30T08:32:23;18.80;;;15.52;;
38787;SDS011;24536;45.488;12.238;2024-01-30T08:34:49;19.83;;;16.25;;
38787;SDS011;24536;45.488;12.238;2024-01-30T08:37:15;20.30;;;15.48;;
38787;SDS011;24536;45.488;12.238;2024-01-30T08:39:42;18.08;;;15.13;;
38787;SDS011;24536;45.488;12.238;2024-01-30T08:42:08;18.33;;;14.57;;
38787;SDS011;24536;45.488;12.238;2024-01-30T08:44:34;18.55;;;15.20;;
38787;SDS011;24536;45.488;12.238;2024-01-30T08:47:06;19.52;;;15.98;;
38787;SDS011;24536;45.488;12.238;2024-01-30T08:49:35;20.42;;;16.73;;
38787;SDS011;24536;45.488;12.238;2024-01-30T08:52:11;23.63;;;18.90;;
38787;SDS011;24536;45.488;12.238;2024-01-30T08:54:48;19.05;;;15.45;;
38787;SDS011;24536;45.488;12.238;2024-01-30T08:57:23;17.83;;;14.50;;
38787;SDS011;24536;45.488;12.238;2024-01-30T08:59:49;18.80;;;16.33;;
38787;SDS011;24536;45.488;12.238;2024-01-30T09:02:15;21.63;;;17.10;;
38787;SDS011;24536;45.488;12.238;2024-01-30T09:04:43;20.13;;;16.55;;
38787;SDS011;24536;45.488;12.238;2024-01-30T09:07:09;20.50;;;16.13;;
38787;SDS011;24536;45.488;12.238;2024-01-30T09:09:35;19.73;;;16.80;;
38787;SDS011;24536;45.488;12.238;2024-01-30T09:12:02;19.88;;;16.17;;
38787;SDS011;24536;45.488;12.238;2024-01-30T09:14:37;20.00;;;16.40;;
38787;SDS011;24536;45.488;12.238;2024-01-30T09:17:04;21.83;;;17.25;;
38787;SDS011;24536;45.488;12.238;2024-01-30T09:19:30;18.70;;;15.73;;
38787;SDS011;24536;45.488;12.238;2024-01-30T09:21:55;19.75;;;15.98;;
38787;SDS011;24536;45.488;12.238;2024-01-30T09:24:25;18.25;;;15.65;;
38787;SDS011;24536;45.488;12.238;2024-01-30T09:26:51;19.92;;;17.52;;
38787;SDS011;24536;45.488;12.238;2024-01-30T09:29:17;28.58;;;23.30;;
38787;SDS011;24536;45.488;12.238;2024-01-30T09:31:49;21.30;;;17.27;;
38787;SDS011;24536;45.488;12.238;2024-01-30T09:34:15;18.58;;;15.90;;
38787;SDS011;24536;45.488;12.238;2024-01-30T09:36:40;21.13;;;16.30;;
38787;SDS011;24536;45.488;12.238;2024-01-30T09:39:09;23.55;;;17.88;;
38787;SDS011;24536;45.488;12.238;2024-01-30T09:41:40;20.13;;;17.17;;
38787;SDS011;24536;45.488;12.238;2024-01-30T09:44:28;21.13;;;17.40;;
38787;SDS011;24536;45.488;12.238;2024-01-30T09:46:55;23.00;;;18.05;;
38787;SDS011;24536;45.488;12.238;2024-01-30T09:49:28;36.90;;;25.73;;
38787;SDS011;24536;45.488;12.238;2024-01-30T09:51:56;20.85;;;17.42;;
38787;SDS011;24536;45.488;12.238;2024-01-30T09:54:23;27.77;;;21.35;;
38787;SDS011;24536;45.488;12.238;2024-01-30T09:56:53;20.73;;;17.77;;
38787;SDS011;24536;45.488;12.238;2024-01-30T09:59:19;26.40;;;19.77;;
38787;SDS011;24536;45.488;12.238;2024-01-30T10:01:45;21.77;;;18.67;;
38787;SDS011;24536;45.488;12.238;2024-01-30T10:04:16;21.67;;;17.60;;
38787;SDS011;24536;45.488;12.238;2024-01-30T10:06:51;20.63;;;16.83;;
38787;SDS011;24536;45.488;12.238;2024-01-30T10:09:17;19.80;;;17.10;;
38787;SDS011;24536;45.488;12.238;2024-01-30T10:11:43;18.65;;;16.63;;
38787;SDS011;24536;45.488;12.238;2024-01-30T10:14:12;18.80;;;16.80;;
38787;SDS011;24536;45.488;12.238;2024-01-30T10:16:41;19.88;;;15.60;;
38787;SDS011;24536;45.488;12.238;2024-01-30T10:19:06;32.60;;;22.55;;
38787;SDS011;24536;45.488;12.238;2024-01-30T10:21:32;25.27;;;18.98;;
38787;SDS011;24536;45.488;12.238;2024-01-30T10:23:58;19.75;;;16.23;;
38787;SDS011;24536;45.488;12.238;2024-01-30T10:26:24;29.73;;;23.90;;
38787;SDS011;24536;45.488;12.238;2024-01-30T10:28:50;20.40;;;16.40;;
38787;SDS011;24536;45.488;12.238;2024-01-30T10:31:19;22.10;;;17.20;;
38787;SDS011;24536;45.488;12.238;2024-01-30T10:33:45;18.08;;;15.35;;
38787;SDS011;24536;45.488;12.238;2024-01-30T10:36:11;23.73;;;18.75;;
38787;SDS011;24536;45.488;12.238;2024-01-30T10:38:38;18.23;;;15.80;;
38787;SDS011;24536;45.488;12.238;2024-01-30T10:41:07;24.27;;;21.17;;
38787;SDS011;24536;45.488;12.238;2024-01-30T10:43:40;21.88;;;17.65;;
38787;SDS011;24536;45.488;12.238;2024-01-30T10:46:19;28.45;;;22.17;;
38787;SDS011;24536;45.488;12.238;2024-01-30T10:48:57;31.60;;;24.27;;
38787;SDS011;24536;45.488;12.238;2024-01-30T10:51:24;20.70;;;17.50;;
38787;SDS011;24536;45.488;12.238;2024-01-30T10:53:52;18.40;;;16.23;;
38787;SDS011;24536;45.488;12.238;2024-01-30T10:56:20;23.35;;;18.38;;
38787;SDS011;24536;45.488;12.238;2024-01-30T10:58:53;21.55;;;16.27;;
38787;SDS011;24536;45.488;12.238;2024-01-30T11:01:21;24.70;;;20.88;;
38787;SDS011;24536;45.488;12.238;2024-01-30T11:03:51;17.45;;;15.10;;
38787;SDS011;24536;45.488;12.238;2024-01-30T11:06:17;17.43;;;15.23;;
38787;SDS011;24536;45.488;12.238;2024-01-30T11:08:46;18.13;;;15.98;;
38787;SDS011;24536;45.488;12.238;2024-01-30T11:11:24;21.95;;;17.90;;
38787;SDS011;24536;45.488;12.238;2024-01-30T11:13:50;20.08;;;17.00;;
38787;SDS011;24536;45.488;12.238;2024-01-30T11:16:16;28.52;;;21.27;;
38787;SDS011;24536;45.488;12.238;2024-01-30T11:18:42;22.73;;;17.38;;
38787;SDS011;24536;45.488;12.238;2024-01-30T11:21:08;20.67;;;16.67;;
38787;SDS011;24536;45.488;12.238;2024-01-30T11:23:33;19.88;;;16.50;;
38787;SDS011;24536;45.488;12.238;2024-01-30T11:26:00;23.30;;;18.40;;
38787;SDS011;24536;45.488;12.238;2024-01-30T11:28:31;23.58;;;18.65;;
38787;SDS011;24536;45.488;12.238;2024-01-30T11:31:08;29.65;;;23.60;;
38787;SDS011;24536;45.488;12.238;2024-01-30T11:33:34;21.13;;;18.75;;
38787;SDS011;24536;45.488;12.238;2024-01-30T11:36:00;32.63;;;23.23;;
38787;SDS011;24536;45.488;12.238;2024-01-30T11:38:28;20.67;;;18.00;;
38787;SDS011;24536;45.488;12.238;2024-01-30T11:40:54;20.95;;;17.85;;
38787;SDS011;24536;45.488;12.238;2024-01-30T11:43:23;22.98;;;18.10;;
38787;SDS011;24536;45.488;12.238;2024-01-30T11:45:49;22.80;;;18.38;;
38787;SDS011;24536;45.488;12.238;2024-01-30T11:48:22;26.95;;;20.80;;
38787;SDS011;24536;45.488;12.238;2024-01-30T11:50:48;24.75;;;19.35;;
38787;SDS011;24536;45.488;12.238;2024-01-30T11:53:15;28.80;;;20.42;;
38787;SDS011;24536;45.488;12.238;2024-01-30T11:55:41;25.25;;;19.55;;
38787;SDS011;24536;45.488;12.238;2024-01-30T11:58:08;23.90;;;19.33;;
38787;SDS011;24536;45.488;12.238;2024-01-30T12:00:35;25.27;;;20.77;;
38787;SDS011;24536;45.488;12.238;2024-01-30T12:03:01;24.55;;;18.60;;
38787;SDS011;24536;45.488;12.238;2024-01-30T12:05:28;24.33;;;20.35;;
38787;SDS011;24536;45.488;12.238;2024-01-30T12:07:54;25.92;;;20.35;;
38787;SDS011;24536;45.488;12.238;2024-01-30T12:10:30;29.08;;;21.02;;
38787;SDS011;24536;45.488;12.238;2024-01-30T12:12:55;24.45;;;21.33;;
38787;SDS011;24536;45.488;12.238;2024-01-30T12:15:22;24.48;;;21.17;;
38787;SDS011;24536;45.488;12.238;2024-01-30T12:17:48;28.63;;;22.17;;
38787;SDS011;24536;45.488;12.238;2024-01-30T12:20:14;30.58;;;22.50;;
38787;SDS011;24536;45.488;12.238;2024-01-30T12:22:43;24.95;;;21.17;;
38787;SDS011;24536;45.488;12.238;2024-01-30T12:25:20;26.42;;;22.55;;
38787;SDS011;24536;45.488;12.238;2024-01-30T12:27:47;28.30;;;21.27;;
38787;SDS011;24536;45.488;12.238;2024-01-30T12:30:15;24.20;;;21.27;;
38787;SDS011;24536;45.488;12.238;2024-01-30T12:32:44;27.80;;;21.40;;
38787;SDS011;24536;45.488;12.238;2024-01-30T12:35:12;25.48;;;20.95;;
38787;SDS011;24536;45.488;12.238;2024-01-30T12:37:39;24.77;;;20.83;;
38787;SDS011;24536;45.488;12.238;2024-01-30T12:40:08;26.02;;;22.55;;
38787;SDS011;24536;45.488;12.238;2024-01-30T12:42:38;25.60;;;22.67;;
38787;SDS011;24536;45.488;12.238;2024-01-30T12:45:04;27.30;;;22.20;;
38787;SDS011;24536;45.488;12.238;2024-01-30T12:47:30;25.92;;;22.42;;
38787;SDS011;24536;45.488;12.238;2024-01-30T12:49:56;28.05;;;22.00;;
38787;SDS011;24536;45.488;12.238;2024-01-30T12:52:22;25.23;;;20.23;;
38787;SDS011;24536;45.488;12.238;2024-01-30T12:54:48;29.92;;;23.45;;
38787;SDS011;24536;45.488;12.238;2024-01-30T12:57:14;26.75;;;21.42;;
38787;SDS011;24536;45.488;12.238;2024-01-30T12:59:41;24.45;;;21.38;;
38787;SDS011;24536;45.488;12.238;2024-01-30T13:02:07;23.45;;;20.20;;
38787;SDS011;24536;45.488;12.238;2024-01-30T13:04:33;22.60;;;18.80;;
38787;SDS011;24536;45.488;12.238;2024-01-30T13:07:00;22.25;;;19.70;;
38787;SDS011;24536;45.488;12.238;2024-01-30T13:09:25;22.85;;;19.77;;
38787;SDS011;24536;45.488;12.238;2024-01-30T13:11:51;27.33;;;21.77;;
38787;SDS011;24536;45.488;12.238;2024-01-30T13:14:18;22.30;;;19.75;;
38787;SDS011;24536;45.488;12.238;2024-01-30T13:16:44;22.83;;;19.98;;
38787;SDS011;24536;45.488;12.238;2024-01-30T13:19:10;25.02;;;21.27;;
38787;SDS011;24536;45.488;12.238;2024-01-30T13:21:36;23.70;;;20.88;;
38787;SDS011;24536;45.488;12.238;2024-01-30T13:24:01;26.65;;;20.38;;
38787;SDS011;24536;45.488;12.238;2024-01-30T13:26:27;22.88;;;17.88;;
38787;SDS011;24536;45.488;12.238;2024-01-30T13:28:53;25.38;;;22.25;;
38787;SDS011;24536;45.488;12.238;2024-01-30T13:31:19;25.75;;;22.38;;
38787;SDS011;24536;45.488;12.238;2024-01-30T13:33:48;26.65;;;22.35;;
38787;SDS011;24536;45.488;12.238;2024-01-30T13:36:14;30.00;;;21.25;;
38787;SDS011;24536;45.488;12.238;2024-01-30T13:38:40;23.85;;;19.35;;
38787;SDS011;24536;45.488;12.238;2024-01-30T13:41:06;26.25;;;20.42;;
38787;SDS011;24536;45.488;12.238;2024-01-30T13:43:32;26.40;;;21.05;;
38787;SDS011;24536;45.488;12.238;2024-01-30T13:45:58;25.50;;;21.88;;
38787;SDS011;24536;45.488;12.238;2024-01-30T13:48:24;25.20;;;20.05;;
38787;SDS011;24536;45.488;12.238;2024-01-30T13:50:50;25.33;;;21.05;;
38787;SDS011;24536;45.488;12.238;2024-01-30T13:53:15;26.15;;;20.20;;
38787;SDS011;24536;45.488;12.238;2024-01-30T13:55:41;24.73;;;19.80;;
38787;SDS011;24536;45.488;12.238;2024-01-30T13:58:07;23.23;;;17.98;;
38787;SDS011;24536;45.488;12.238;2024-01-30T14:00:33;25.15;;;18.40;;
38787;SDS011;24536;45.488;12.238;2024-01-30T14:02:59;19.90;;;16.63;;
38787;SDS011;24536;45.488;12.238;2024-01-30T14:05:25;21.20;;;17.20;;